Time;durP1;ratioP1;P1;durP2;ratioP2;P2;SDS_P1;SDS_P2;PMS_P1;PMS_P2;Temp;Humidity;BMP_temperature;BMP_pressure;BME280_temperature;BME280_humidity;BME280_pressure;Samples;Min_cycle;Max_cycle;Signal;HPM_P1;HPM_P2
2021/12/09 00:04:28;;;;;;;35.20;20.77;;;11.80;74.10;;;;;;10222217;28;20810;-88
2021/12/09 00:09:31;;;;;;;28.27;17.27;;;10.40;68.40;;;;;;10263590;28;20769;-89
2021/12/09 00:14:35;;;;;;;29.13;17.17;;;11.60;72.90;;;;;;10264820;28;20271;-88
2021/12/09 00:19:38;;;;;;;22.83;14.27;;;12.00;75.30;;;;;;10240836;28;20232;-88
2021/12/09 00:24:41;;;;;;;23.97;14.20;;;12.20;76.90;;;;;;10248620;28;20240;-88
2021/12/09 00:29:43;;;;;;;35.20;18.67;;;12.00;75.50;;;;;;10263689;28;20244;-88
2021/12/09 00:34:49;;;;;;;21.30;13.20;;;12.00;72.30;;;;;;10262050;28;20272;-88
2021/12/09 00:39:52;;;;;;;19.40;12.33;;;12.00;76.40;;;;;;10248953;28;20241;-88
2021/12/09 00:44:55;;;;;;;22.13;12.63;;;12.20;75.70;;;;;;10244815;28;20240;-88
2021/12/09 00:49:58;;;;;;;20.27;12.40;;;12.30;75.10;;;;;;10247739;28;20322;-88
2021/12/09 00:55:01;;;;;;;19.27;11.70;;;12.20;73.40;;;;;;10258642;28;20284;-88
2021/12/09 01:00:09;;;;;;;20.30;12.63;;;12.30;74.60;;;;;;10263931;28;20240;-89
2021/12/09 01:05:12;;;;;;;23.27;13.43;;;12.20;73.90;;;;;;10243956;28;20236;-88
2021/12/09 01:10:15;;;;;;;19.30;12.23;;;12.20;74.40;;;;;;10204569;29;20245;-88
2021/12/09 01:15:19;;;;;;;20.47;12.77;;;12.20;74.20;;;;;;10203612;29;20737;-88
2021/12/09 01:20:26;;;;;;;34.27;19.43;;;12.10;74.30;;;;;;10243703;29;20272;-88
2021/12/09 01:25:35;;;;;;;20.97;12.80;;;11.80;71.00;;;;;;10228391;29;20260;-88
2021/12/09 01:30:38;;;;;;;41.23;21.03;;;11.70;68.10;;;;;;10244190;29;20800;-88
2021/12/09 01:35:47;;;;;;;36.10;20.93;;;11.10;70.20;;;;;;10226985;29;20302;-88
2021/12/09 01:40:49;;;;;;;22.03;12.63;;;10.80;70.10;;;;;;10222488;29;20268;-88
2021/12/09 01:46:03;;;;;;;20.83;12.33;;;11.70;75.40;;;;;;10237414;29;20243;-88
2021/12/09 01:51:06;;;;;;;20.30;13.17;;;11.90;66.60;;;;;;10228170;29;20339;-88
2021/12/09 01:56:12;;;;;;;24.03;12.17;;;10.80;75.60;;;;;;10243042;29;20782;-88
2021/12/09 02:01:16;;;;;;;19.60;11.93;;;11.80;74.60;;;;;;10211301;29;20240;-88
2021/12/09 02:06:19;;;;;;;20.93;12.83;;;11.80;74.30;;;;;;10227185;29;20259;-88
2021/12/09 02:11:24;;;;;;;23.27;13.53;;;11.90;74.00;;;;;;10244128;29;20248;-88
2021/12/09 02:16:27;;;;;;;20.63;12.43;;;12.10;73.10;;;;;;10210020;29;20314;-89
2021/12/09 02:21:32;;;;;;;23.27;13.43;;;12.30;72.40;;;;;;10216061;29;20271;-88
2021/12/09 02:26:38;;;;;;;21.87;13.00;;;11.80;73.20;;;;;;10195068;29;20248;-89
2021/12/09 02:31:42;;;;;;;21.23;12.67;;;12.00;72.90;;;;;;10217073;28;20820;-89
2021/12/09 02:36:46;;;;;;;19.20;12.10;;;12.00;73.00;;;;;;10200370;29;20319;-88
2021/12/09 02:41:49;;;;;;;20.67;13.10;;;12.10;72.70;;;;;;10233490;29;20303;-89
2021/12/09 02:46:54;;;;;;;23.50;15.33;;;11.80;72.50;;;;;;10233741;29;20251;-89
2021/12/09 02:51:59;;;;;;;31.83;16.93;;;12.30;68.50;;;;;;10240170;29;20640;-88
2021/12/09 02:57:06;;;;;;;27.23;15.07;;;11.90;66.90;;;;;;10213900;29;20266;-88
2021/12/09 03:02:10;;;;;;;19.30;12.00;;;11.70;68.20;;;;;;10248151;29;20241;-88
2021/12/09 03:07:31;;;;;;;21.97;12.40;;;12.30;71.60;;;;;;10232636;29;20702;-89
2021/12/09 03:12:35;;;;;;;21.97;12.80;;;12.30;69.40;;;;;;10230135;29;20238;-88
2021/12/09 03:17:39;;;;;;;19.67;11.73;;;12.00;71.90;;;;;;10230619;29;20259;-88
2021/12/09 03:22:42;;;;;;;21.27;12.70;;;12.00;70.80;;;;;;10224754;29;20271;-88
2021/12/09 03:27:45;;;;;;;23.23;12.17;;;12.20;71.60;;;;;;10210252;29;20249;-89
2021/12/09 03:32:47;;;;;;;24.50;13.13;;;12.30;70.90;;;;;;10210695;29;20675;-89
2021/12/09 03:37:50;;;;;;;17.70;12.50;;;12.40;70.20;;;;;;10220417;29;20311;-89
2021/12/09 03:42:52;;;;;;;37.80;20.50;;;12.10;70.90;;;;;;10248044;28;20636;-88
2021/12/09 03:47:55;;;;;;;20.30;12.17;;;12.30;67.30;;;;;;10248184;29;20712;-89
2021/12/09 03:52:58;;;;;;;32.23;19.77;;;12.40;70.30;;;;;;10211098;29;20272;-89
2021/12/09 03:58:01;;;;;;;25.03;14.73;;;12.20;66.60;;;;;;10208727;29;20276;-88
2021/12/09 04:03:04;;;;;;;21.50;13.57;;;12.40;69.60;;;;;;10208528;29;20232;-88
2021/12/09 04:08:07;;;;;;;21.83;13.80;;;12.30;70.20;;;;;;10208176;29;20249;-88
2021/12/09 04:13:10;;;;;;;21.00;12.60;;;12.40;70.00;;;;;;10221866;29;20885;-89
2021/12/09 04:18:12;;;;;;;24.93;15.37;;;12.50;69.50;;;;;;10246583;29;20295;-88
2021/12/09 04:23:16;;;;;;;20.23;12.37;;;12.40;69.30;;;;;;10226887;29;20236;-88
2021/12/09 04:28:19;;;;;;;23.10;13.90;;;12.10;70.00;;;;;;10207763;29;20236;-89
2021/12/09 04:33:22;;;;;;;27.57;16.03;;;12.20;69.60;;;;;;10226815;29;20293;-89
2021/12/09 04:38:25;;;;;;;22.73;13.17;;;12.00;68.50;;;;;;10228749;29;20323;-88
2021/12/09 04:43:28;;;;;;;21.90;12.47;;;12.10;70.30;;;;;;10213087;29;20242;-88
2021/12/09 04:48:30;;;;;;;22.00;13.30;;;12.00;68.80;;;;;;10189719;29;20240;-89
2021/12/09 04:53:33;;;;;;;23.27;13.80;;;12.20;69.80;;;;;;10210947;29;20264;-89
2021/12/09 04:58:36;;;;;;;17.93;12.13;;;12.30;69.50;;;;;;10189466;29;20260;-89
2021/12/09 05:03:43;;;;;;;23.80;14.23;;;12.20;69.70;;;;;;10211265;29;20689;-89
2021/12/09 05:08:48;;;;;;;21.63;13.63;;;11.80;69.80;;;;;;10244593;29;20271;-89
2021/12/09 05:13:51;;;;;;;26.90;15.30;;;12.00;70.30;;;;;;10213044;29;20248;-89
2021/12/09 05:18:58;;;;;;;21.70;13.97;;;11.90;70.00;;;;;;10217237;29;20268;-89
2021/12/09 05:24:01;;;;;;;22.73;13.97;;;11.60;70.80;;;;;;10239778;29;20242;-88
2021/12/09 05:29:03;;;;;;;23.97;13.17;;;12.10;69.70;;;;;;10243224;28;20236;-89
2021/12/09 05:34:06;;;;;;;26.70;15.87;;;11.90;69.80;;;;;;10251275;28;20337;-88
2021/12/09 05:39:11;;;;;;;41.03;20.73;;;11.70;69.20;;;;;;10225962;29;20264;-88
2021/12/09 05:44:14;;;;;;;22.70;14.27;;;11.60;67.90;;;;;;10242884;29;20282;-89
2021/12/09 05:49:17;;;;;;;22.97;13.53;;;12.00;69.80;;;;;;10243928;29;20264;-89
2021/12/09 05:54:20;;;;;;;24.17;13.77;;;12.10;69.30;;;;;;10244953;29;20247;-89
2021/12/09 05:59:22;;;;;;;22.57;13.80;;;11.90;69.80;;;;;;10214656;29;20276;-89
2021/12/09 06:04:25;;;;;;;32.50;17.30;;;12.30;68.90;;;;;;10208445;29;20608;-89
2021/12/09 06:09:28;;;;;;;27.67;15.13;;;12.20;67.80;;;;;;10192815;29;20233;-89
2021/12/09 06:14:31;;;;;;;25.57;13.90;;;11.90;68.10;;;;;;10194821;29;20749;-89
2021/12/09 06:19:33;;;;;;;25.10;14.40;;;12.10;69.20;;;;;;10211737;29;20280;-88
2021/12/09 06:24:36;;;;;;;22.57;13.77;;;12.00;69.60;;;;;;10201243;29;20294;-88
2021/12/09 06:29:39;;;;;;;21.53;13.70;;;11.90;69.60;;;;;;10249175;28;20240;-89
2021/12/09 06:34:42;;;;;;;24.37;14.83;;;12.00;69.50;;;;;;10218878;29;20256;-88
2021/12/09 06:39:44;;;;;;;22.17;13.70;;;12.10;69.20;;;;;;10232313;28;20309;-89
2021/12/09 06:44:47;;;;;;;26.60;14.33;;;11.50;70.10;;;;;;10265020;28;20234;-88
2021/12/09 06:49:50;;;;;;;22.30;13.10;;;11.50;69.40;;;;;;10224562;29;20238;-88
2021/12/09 06:54:53;;;;;;;25.47;14.70;;;11.40;71.50;;;;;;10250226;29;20759;-88
2021/12/09 06:59:55;;;;;;;30.87;17.27;;;11.90;69.00;;;;;;10235797;29;20266;-88
2021/12/09 07:04:58;;;;;;;28.63;16.90;;;11.20;67.90;;;;;;10211376;29;20636;-88
2021/12/09 07:10:01;;;;;;;21.97;13.07;;;11.30;70.80;;;;;;10198183;28;20261;-88
2021/12/09 07:15:05;;;;;;;25.67;13.27;;;11.60;70.00;;;;;;10216386;29;20317;-88
2021/12/09 07:20:18;;;;;;;34.73;18.47;;;11.80;69.90;;;;;;10191955;29;20398;-87
2021/12/09 07:25:22;;;;;;;21.70;13.80;;;11.60;68.70;;;;;;10211275;29;20263;-88
2021/12/09 07:30:27;;;;;;;37.47;19.93;;;11.90;69.50;;;;;;10235787;29;21915;-88
2021/12/09 07:35:30;;;;;;;20.73;12.00;;;11.90;67.50;;;;;;10230870;29;20255;-88
2021/12/09 07:40:34;;;;;;;25.03;13.90;;;11.90;69.50;;;;;;10230233;29;20250;-89
2021/12/09 07:45:37;;;;;;;23.87;14.07;;;11.40;70.70;;;;;;10230428;29;20248;-88
2021/12/09 07:50:39;;;;;;;23.00;12.87;;;11.80;69.60;;;;;;10211749;29;20296;-89
2021/12/09 07:55:42;;;;;;;25.57;14.03;;;12.10;69.10;;;;;;10207761;29;20297;-88
2021/12/09 08:00:46;;;;;;;22.37;13.10;;;11.90;69.60;;;;;;10222528;29;20670;-88
2021/12/09 08:05:48;;;;;;;22.10;13.73;;;12.00;69.30;;;;;;10203321;29;20248;-88
2021/12/09 08:10:52;;;;;;;29.93;17.60;;;12.00;69.10;;;;;;10223350;29;20378;-88
2021/12/09 08:15:54;;;;;;;24.07;13.87;;;12.10;66.50;;;;;;10225671;29;20665;-88
2021/12/09 08:21:01;;;;;;;21.17;12.77;;;12.10;68.90;;;;;;10223139;29;20257;-89
2021/12/09 08:26:04;;;;;;;24.63;14.10;;;12.00;69.10;;;;;;10221171;29;20319;-88
2021/12/09 08:31:07;;;;;;;27.93;14.47;;;11.90;69.10;;;;;;10202376;28;20326;-88
2021/12/09 08:36:10;;;;;;;25.40;14.30;;;11.30;72.30;;;;;;10216324;29;20263;-88
2021/12/09 08:41:15;;;;;;;24.90;13.97;;;12.00;69.40;;;;;;10233521;29;20288;-87
2021/12/09 08:46:19;;;;;;;21.43;13.20;;;12.30;68.80;;;;;;10209151;29;20204;-88
2021/12/09 08:51:22;;;;;;;27.37;15.87;;;12.00;68.80;;;;;;10238517;28;20681;-88
2021/12/09 08:56:25;;;;;;;25.77;14.37;;;12.00;68.50;;;;;;10213320;28;20268;-87
2021/12/09 09:01:28;;;;;;;24.00;14.23;;;12.00;69.10;;;;;;10221862;29;20240;-87
2021/12/09 09:06:32;;;;;;;28.03;14.90;;;11.90;69.40;;;;;;10176318;29;20264;-87
2021/12/09 09:11:35;;;;;;;27.83;14.57;;;12.10;68.70;;;;;;10210972;28;20271;-87
2021/12/09 09:16:38;;;;;;;24.40;13.57;;;12.10;68.50;;;;;;10236493;28;20269;-88
2021/12/09 09:21:42;;;;;;;21.77;13.33;;;12.30;68.00;;;;;;10231485;29;20275;-86
2021/12/09 09:26:45;;;;;;;27.70;14.40;;;12.20;68.40;;;;;;10246846;28;20267;-87
2021/12/09 09:31:48;;;;;;;26.57;15.80;;;12.20;68.50;;;;;;10230319;28;20274;-87
2021/12/09 09:36:51;;;;;;;24.13;14.33;;;12.10;68.20;;;;;;10216895;29;20856;-87
2021/12/09 09:41:59;;;;;;;33.60;17.37;;;11.70;69.40;;;;;;10215622;28;20750;-86
2021/12/09 09:47:03;;;;;;;23.70;14.10;;;11.90;69.00;;;;;;10220474;29;20294;-86
2021/12/09 09:52:08;;;;;;;27.03;16.10;;;12.00;68.70;;;;;;10242194;28;20301;-86
2021/12/09 09:57:11;;;;;;;25.90;14.50;;;12.30;68.10;;;;;;10255637;28;20362;-87
2021/12/09 10:02:14;;;;;;;42.70;22.20;;;12.40;67.30;;;;;;10232780;29;20246;-86
2021/12/09 10:07:21;;;;;;;23.60;14.60;;;12.30;66.10;;;;;;10240734;29;20320;-87
2021/12/09 10:12:24;;;;;;;50.30;24.80;;;12.40;67.40;;;;;;10205695;29;20242;-87
2021/12/09 10:17:27;;;;;;;25.50;15.07;;;12.20;66.30;;;;;;10220315;28;20325;-87
2021/12/09 10:22:42;;;;;;;25.40;14.50;;;12.30;67.90;;;;;;10228056;29;20293;-87
2021/12/09 10:28:00;;;;;;;31.40;16.20;;;12.30;67.80;;;;;;10228232;29;20303;-87
2021/12/09 10:33:03;;;;;;;26.57;16.57;;;12.30;67.80;;;;;;10228898;29;20672;-87
2021/12/09 10:38:07;;;;;;;25.40;15.23;;;11.90;68.70;;;;;;10227018;28;20279;-87
2021/12/09 10:43:17;;;;;;;64.93;34.30;;;11.80;67.70;;;;;;10236884;28;21034;-87
2021/12/09 10:48:27;;;;;;;54.50;29.07;;;12.00;62.80;;;;;;10248581;29;20259;-87
2021/12/09 10:53:46;;;;;;;27.57;14.87;;;12.00;64.00;;;;;;10210192;29;20258;-87
2021/12/09 10:58:49;;;;;;;26.33;15.47;;;12.10;68.50;;;;;;10212468;29;20807;-86
2021/12/09 11:04:00;;;;;;;26.57;14.83;;;12.40;66.80;;;;;;10213723;29;20247;-88
2021/12/09 11:09:09;;;;;;;25.73;15.30;;;12.40;67.40;;;;;;10232238;29;20243;-87
2021/12/09 11:14:14;;;;;;;29.00;16.87;;;12.10;68.40;;;;;;10218120;29;20236;-87
2021/12/09 11:19:34;;;;;;;25.37;15.80;;;12.20;67.80;;;;;;10238459;29;21043;-87
2021/12/09 11:24:42;;;;;;;29.23;17.97;;;12.30;67.60;;;;;;10209044;29;20254;-87
2021/12/09 11:29:49;;;;;;;28.73;16.17;;;12.50;66.60;;;;;;10203893;29;20305;-87
2021/12/09 11:34:56;;;;;;;24.57;15.63;;;12.10;67.60;;;;;;10224755;29;20299;-87
2021/12/09 11:40:44;;;;;;;25.70;14.53;;;12.00;67.50;;;;;;10210546;28;20289;-87
2021/12/09 11:45:57;;;;;;;28.03;16.83;;;12.40;67.10;;;;;;10217293;29;20273;-87
2021/12/09 11:51:00;;;;;;;35.67;19.57;;;12.30;67.30;;;;;;10220818;28;20250;-87
2021/12/09 11:56:09;;;;;;;42.90;24.33;;;11.90;68.00;;;;;;10246994;28;20709;-87
2021/12/09 12:18:27;;;;;;;29.10;16.87;;;11.60;65.60;;;;;;10261889;28;20305;-87
2021/12/09 12:23:29;;;;;;;50.83;27.10;;;11.90;68.70;;;;;;10225196;28;21610;-85
2021/12/09 12:28:58;;;;;;;50.10;27.37;;;11.10;65.70;;;;;;10255645;28;20297;-84
2021/12/09 12:39:29;;;;;;;28.43;16.93;;;11.20;67.00;;;;;;10251585;28;20364;-84
2021/12/09 12:44:32;;;;;;;57.27;30.33;;;11.80;69.00;;;;;;10241180;28;20249;-84
2021/12/09 12:49:37;;;;;;;27.73;17.23;;;11.00;67.10;;;;;;10232825;29;20250;-84
2021/12/09 12:59:59;;;;;;;42.40;22.23;;;10.80;71.90;;;;;;10213781;29;20262;-84
2021/12/09 13:05:23;;;;;;;30.80;18.10;;;11.10;70.10;;;;;;10190872;29;20277;-83
2021/12/09 13:10:50;;;;;;;32.63;18.80;;;11.60;69.90;;;;;;10216246;28;20244;-83
2021/12/09 13:21:40;;;;;;;58.43;30.43;;;11.30;70.00;;;;;;10220055;29;20304;-84
2021/12/09 13:33:20;;;;;;;27.53;15.40;;;10.90;72.00;;;;;;10224234;29;20298;-84
2021/12/09 13:39:06;;;;;;;26.93;16.53;;;11.50;70.30;;;;;;10278241;28;20312;-84
2021/12/09 13:49:20;;;;;;;32.60;18.50;;;12.00;69.00;;;;;;10198072;29;20265;-84
2021/12/09 13:54:27;;;;;;;28.30;15.57;;;12.00;67.30;;;;;;10223300;28;20238;-88
2021/12/09 13:59:31;;;;;;;29.23;17.43;;;12.00;68.80;;;;;;10213205;29;20305;-87
2021/12/09 14:04:37;;;;;;;30.90;18.80;;;11.40;69.30;;;;;;10231112;28;20242;-87
2021/12/09 14:09:42;;;;;;;45.47;24.80;;;11.20;67.00;;;;;;10220575;29;20282;-87
2021/12/09 14:14:59;;;;;;;39.40;21.23;;;11.10;69.10;;;;;;10219919;29;20641;-87
2021/12/09 14:20:03;;;;;;;43.70;24.27;;;10.90;70.40;;;;;;10200227;29;20262;-87
2021/12/09 14:25:20;;;;;;;28.07;16.43;;;10.80;70.50;;;;;;10206341;29;20262;-88
2021/12/09 14:30:25;;;;;;;35.37;18.63;;;11.10;71.20;;;;;;10227900;29;20248;-87
2021/12/09 14:35:45;;;;;;;28.43;17.30;;;11.30;70.80;;;;;;10228907;29;20912;-86
2021/12/09 14:40:54;;;;;;;28.87;15.97;;;11.40;70.60;;;;;;10240959;28;20322;-86
2021/12/09 14:46:11;;;;;;;32.10;19.80;;;11.40;70.40;;;;;;10239613;28;20239;-86
2021/12/09 14:51:19;;;;;;;31.63;18.77;;;11.50;70.40;;;;;;10229422;28;20292;-87
2021/12/09 14:56:28;;;;;;;24.50;15.50;;;11.50;70.20;;;;;;10229780;29;20324;-86
2021/12/09 15:01:34;;;;;;;26.30;16.43;;;11.30;70.80;;;;;;9893113;28;10000140;-87
2021/12/09 15:06:39;;;;;;;59.13;35.40;;;11.50;70.30;;;;;;10212115;28;20335;-87
2021/12/09 15:11:54;;;;;;;38.60;21.67;;;11.30;65.70;;;;;;10217657;29;20291;-86
2021/12/09 15:17:21;;;;;;;34.17;20.70;;;11.30;70.50;;;;;;10234125;28;20289;-86
2021/12/09 15:22:37;;;;;;;29.83;17.40;;;11.30;69.90;;;;;;10229204;29;20389;-86
2021/12/09 15:27:58;;;;;;;52.20;28.97;;;11.50;70.30;;;;;;10200399;29;20321;-86
2021/12/09 15:33:01;;;;;;;34.27;18.37;;;11.20;70.00;;;;;;10221912;29;20329;-86
2021/12/09 15:38:04;;;;;;;30.90;17.87;;;11.30;70.40;;;;;;10224907;29;21102;-87
2021/12/09 15:43:13;;;;;;;32.00;17.60;;;11.70;70.00;;;;;;10200348;28;20741;-86
2021/12/09 15:48:18;;;;;;;38.10;22.80;;;11.60;69.80;;;;;;10220560;29;20353;-86
2021/12/09 15:53:20;;;;;;;26.10;16.87;;;11.50;69.30;;;;;;10231958;29;20244;-86
2021/12/09 15:58:23;;;;;;;30.03;18.00;;;11.70;68.80;;;;;;10203877;29;20321;-86
2021/12/09 16:03:26;;;;;;;32.93;18.83;;;11.50;69.70;;;;;;10233464;28;20314;-86
2021/12/09 16:08:30;;;;;;;27.83;17.30;;;11.10;70.70;;;;;;10198537;29;20289;-86
2021/12/09 16:13:33;;;;;;;31.50;17.03;;;11.20;70.70;;;;;;10222496;29;20351;-86
2021/12/09 16:18:41;;;;;;;31.90;18.80;;;11.20;71.00;;;;;;10216271;28;20313;-86
2021/12/09 16:23:48;;;;;;;40.03;21.00;;;11.10;71.00;;;;;;10212791;28;20286;-87
2021/12/09 16:28:51;;;;;;;42.30;23.53;;;9.90;68.90;;;;;;10221734;29;20322;-86
2021/12/09 16:33:56;;;;;;;71.57;35.70;;;10.70;71.50;;;;;;10178262;29;20262;-85
2021/12/09 16:38:59;;;;;;;60.57;33.47;;;7.60;74.80;;;;;;10206747;29;20262;-85
2021/12/09 16:44:02;;;;;;;64.33;33.20;;;9.80;67.70;;;;;;10242016;29;20696;-85
2021/12/09 16:49:05;;;;;;;52.67;29.60;;;9.70;66.40;;;;;;10214950;29;20673;-85
2021/12/09 16:54:13;;;;;;;56.10;30.23;;;9.90;65.80;;;;;;10219908;28;21050;-86
2021/12/09 16:59:24;;;;;;;73.07;37.87;;;10.40;65.30;;;;;;10215368;28;20719;-85
2021/12/09 17:04:28;;;;;;;57.60;31.80;;;8.70;61.90;;;;;;9874161;29;9999925;-84
2021/12/09 17:09:30;;;;;;;59.13;31.67;;;9.90;69.50;;;;;;10206927;29;20273;-84
2021/12/09 17:14:33;;;;;;;58.30;31.43;;;10.60;67.20;;;;;;10220586;29;20290;-86
2021/12/09 17:19:37;;;;;;;60.17;32.70;;;10.60;67.50;;;;;;10182293;29;20305;-85
2021/12/09 17:24:40;;;;;;;66.73;36.30;;;10.50;69.30;;;;;;10199597;29;20915;-85
2021/12/09 17:29:42;;;;;;;56.67;29.20;;;10.60;68.30;;;;;;10184576;29;20336;-86
2021/12/09 17:34:45;;;;;;;49.30;26.73;;;10.40;72.00;;;;;;10263749;28;20341;-85
2021/12/09 17:39:48;;;;;;;44.37;25.33;;;10.40;75.10;;;;;;10251228;28;20339;-85
2021/12/09 17:44:50;;;;;;;52.17;29.13;;;11.20;74.50;;;;;;10235812;29;20321;-85
2021/12/09 17:49:58;;;;;;;51.37;26.37;;;11.50;71.70;;;;;;10235926;29;20300;-85
2021/12/09 17:55:00;;;;;;;44.20;24.93;;;11.00;75.30;;;;;;10218921;29;20320;-85
2021/12/09 18:00:07;;;;;;;46.17;26.03;;;10.60;78.00;;;;;;10238115;29;20370;-86
2021/12/09 18:05:19;;;;;;;46.03;24.90;;;11.10;78.10;;;;;;10229749;28;20754;-86
2021/12/09 18:10:23;;;;;;;64.90;33.37;;;11.20;77.70;;;;;;10206142;29;20298;-86
2021/12/09 18:15:33;;;;;;;51.63;27.57;;;10.90;74.10;;;;;;10229772;29;20268;-86
2021/12/09 18:20:37;;;;;;;56.10;29.83;;;9.50;77.70;;;;;;10194026;29;20672;-86
2021/12/09 18:25:40;;;;;;;59.27;30.73;;;10.40;75.50;;;;;;10215680;29;20247;-87
2021/12/09 18:30:54;;;;;;;58.43;31.53;;;10.70;73.20;;;;;;10231491;29;20937;-86
2021/12/09 18:35:59;;;;;;;38.63;22.90;;;10.60;71.90;;;;;;10250790;29;20241;-86
2021/12/09 18:41:02;;;;;;;71.43;36.03;;;10.90;82.20;;;;;;10220409;29;20328;-86
2021/12/09 18:46:04;;;;;;;38.03;22.17;;;10.80;71.40;;;;;;10246451;28;21118;-86
2021/12/09 18:51:15;;;;;;;37.80;21.40;;;10.90;83.00;;;;;;10266294;28;20311;-85
2021/12/09 18:56:27;;;;;;;47.73;26.27;;;10.90;83.70;;;;;;10255609;28;20757;-85
2021/12/09 19:01:29;;;;;;;32.23;18.87;;;11.30;79.90;;;;;;10251211;28;20735;-85
2021/12/09 19:06:33;;;;;;;61.17;30.40;;;11.60;82.20;;;;;;10203893;29;21100;-85
2021/12/09 19:11:36;;;;;;;61.90;32.10;;;11.90;70.40;;;;;;10218101;29;20237;-85
2021/12/09 19:16:42;;;;;;;59.53;31.87;;;11.50;69.90;;;;;;10235436;28;20287;-85
2021/12/09 19:21:47;;;;;;;65.20;34.83;;;11.20;70.20;;;;;;10213068;29;20687;-85
2021/12/09 19:26:57;;;;;;;63.30;33.13;;;11.30;69.30;;;;;;10229225;29;20704;-85
2021/12/09 19:31:59;;;;;;;49.13;25.43;;;11.30;70.80;;;;;;10226056;29;20830;-85
2021/12/09 19:37:02;;;;;;;47.10;26.83;;;11.50;73.20;;;;;;10198305;29;20236;-85
2021/12/09 19:42:05;;;;;;;53.90;28.90;;;11.40;69.20;;;;;;10237587;29;20318;-85
2021/12/09 19:47:08;;;;;;;46.47;24.93;;;10.60;76.50;;;;;;10207354;29;20270;-85
2021/12/09 19:52:10;;;;;;;45.57;24.47;;;11.40;75.60;;;;;;10191843;29;20693;-85
2021/12/09 19:57:16;;;;;;;39.97;24.33;;;11.50;74.80;;;;;;10217132;28;20248;-85
2021/12/09 20:02:19;;;;;;;38.73;23.43;;;11.50;75.00;;;;;;10204808;29;20260;-85
2021/12/09 20:07:21;;;;;;;46.27;25.63;;;11.10;75.90;;;;;;10217720;29;20262;-86
2021/12/09 20:12:24;;;;;;;39.73;22.33;;;11.40;75.80;;;;;;10237021;28;20748;-85
2021/12/09 20:17:27;;;;;;;43.20;23.67;;;11.10;77.30;;;;;;10242584;29;20694;-84
2021/12/09 20:22:29;;;;;;;43.77;24.33;;;11.30;74.40;;;;;;10233786;29;20268;-85
2021/12/09 20:27:32;;;;;;;44.87;25.27;;;11.30;75.40;;;;;;10206662;29;20263;-84
2021/12/09 20:32:55;;;;;;;40.50;22.67;;;11.00;76.00;;;;;;10219159;29;20244;-85
2021/12/09 20:37:58;;;;;;;51.57;29.40;;;11.10;77.50;;;;;;10228844;29;20252;-88
2021/12/09 20:43:01;;;;;;;36.30;20.97;;;10.90;71.70;;;;;;10245950;29;20260;-88
2021/12/09 20:48:04;;;;;;;43.83;25.73;;;11.30;76.60;;;;;;10265407;28;20233;-87
2021/12/09 20:53:08;;;;;;;37.13;21.10;;;10.90;73.70;;;;;;10230803;28;20243;-88
2021/12/09 20:58:19;;;;;;;34.60;19.70;;;11.30;76.70;;;;;;10227828;29;20797;-88
2021/12/09 21:03:22;;;;;;;33.13;19.40;;;11.30;76.50;;;;;;10246521;28;20330;-88
2021/12/09 21:08:25;;;;;;;36.77;20.13;;;11.50;76.00;;;;;;10243864;28;20259;-87
2021/12/09 21:13:29;;;;;;;47.93;23.77;;;11.40;75.90;;;;;;10224230;28;20326;-88
2021/12/09 21:18:31;;;;;;;40.47;22.07;;;11.20;74.30;;;;;;10259745;28;20231;-88
2021/12/09 21:23:35;;;;;;;34.83;20.57;;;11.40;75.40;;;;;;10251263;28;20260;-87
2021/12/09 21:28:55;;;;;;;39.00;22.77;;;11.30;75.60;;;;;;10243842;28;20295;-88
2021/12/09 21:34:03;;;;;;;38.23;23.40;;;11.20;75.30;;;;;;10244220;28;20724;-88
2021/12/09 21:39:08;;;;;;;42.87;23.90;;;11.40;75.50;;;;;;10219365;28;20284;-87
2021/12/09 21:44:11;;;;;;;37.50;20.97;;;8.60;88.80;;;;;;10238490;28;20239;-88
2021/12/09 21:49:14;;;;;;;35.53;19.50;;;10.60;81.60;;;;;;10251417;28;20679;-88
2021/12/09 21:54:19;;;;;;;33.20;19.17;;;10.40;82.30;;;;;;10239991;28;20231;-88
2021/12/09 21:59:22;;;;;;;50.83;27.13;;;10.80;80.00;;;;;;10239900;28;20775;-89
2021/12/09 22:04:25;;;;;;;34.27;20.57;;;11.00;74.50;;;;;;10253823;28;20244;-88
2021/12/09 22:09:28;;;;;;;38.43;20.53;;;11.10;78.10;;;;;;10252534;28;20288;-88
2021/12/09 22:14:30;;;;;;;36.37;22.23;;;11.40;77.30;;;;;;10258916;28;20288;-87
2021/12/09 22:19:35;;;;;;;46.50;25.30;;;11.10;76.70;;;;;;10236265;28;20269;-88
2021/12/09 22:24:38;;;;;;;30.07;18.80;;;11.00;75.80;;;;;;10208327;29;20241;-88
2021/12/09 22:29:41;;;;;;;32.77;18.23;;;11.20;77.50;;;;;;10242891;28;20243;-88
2021/12/09 22:34:45;;;;;;;34.80;19.33;;;11.40;76.90;;;;;;10203656;29;20265;-88
2021/12/09 22:39:48;;;;;;;29.67;17.90;;;11.40;76.60;;;;;;10206545;29;20370;-88
2021/12/09 22:44:50;;;;;;;34.03;19.53;;;11.30;76.80;;;;;;10234559;29;20312;-88
2021/12/09 22:49:59;;;;;;;31.70;19.30;;;11.40;76.70;;;;;;10240529;29;20307;-88
2021/12/09 22:55:07;;;;;;;61.00;31.60;;;11.50;76.30;;;;;;10231742;29;20271;-88
2021/12/09 23:00:42;;;;;;;28.43;17.73;;;11.30;70.60;;;;;;10240212;29;20293;-88
2021/12/09 23:05:53;;;;;;;32.47;19.47;;;11.40;76.60;;;;;;10215776;29;20624;-89
2021/12/09 23:10:56;;;;;;;31.43;18.67;;;11.30;75.80;;;;;;10226532;29;20723;-90
2021/12/09 23:16:02;;;;;;;29.17;17.07;;;11.50;76.10;;;;;;10233105;29;20248;-89
2021/12/09 23:21:05;;;;;;;30.53;18.47;;;11.40;76.20;;;;;;10223264;29;20716;-89
2021/12/09 23:26:08;;;;;;;38.40;21.53;;;11.40;76.10;;;;;;10221575;29;20234;-89
2021/12/09 23:31:14;;;;;;;32.03;18.37;;;11.20;75.20;;;;;;10231233;29;20798;-89
2021/12/09 23:36:18;;;;;;;33.13;18.97;;;11.30;76.50;;;;;;10246673;29;20293;-89
2021/12/09 23:41:22;;;;;;;60.03;30.13;;;11.50;75.70;;;;;;10231093;29;21202;-89
2021/12/09 23:46:26;;;;;;;43.10;23.13;;;10.70;73.80;;;;;;10249253;29;20245;-89
2021/12/09 23:51:29;;;;;;;30.97;17.87;;;10.30;77.70;;;;;;10213732;29;20269;-90
2021/12/09 23:56:31;;;;;;;34.20;19.80;;;10.40;79.70;;;;;;10208836;29;20795;-90
